createdAt,value
2023-12-24T00:01:19.940Z,27.10
2023-12-24T00:03:47.039Z,26.30
2023-12-24T00:06:14.340Z,26.20
2023-12-24T00:08:41.531Z,26.60
2023-12-24T00:11:08.520Z,27.10
2023-12-24T00:13:35.549Z,27.70
2023-12-24T00:16:02.716Z,28.00
2023-12-24T00:18:29.852Z,28.20
2023-12-24T00:20:57.234Z,28.30
2023-12-24T00:23:24.414Z,28.50
2023-12-24T00:25:51.401Z,28.10
2023-12-24T00:28:18.432Z,27.70
2023-12-24T00:30:46.623Z,27.90
2023-12-24T00:33:13.757Z,28.20
2023-12-24T00:35:40.762Z,28.50
2023-12-24T00:38:07.803Z,28.30
2023-12-24T00:40:34.820Z,27.90
2023-12-24T00:43:02.926Z,27.50
2023-12-24T00:45:31.343Z,27.00
2023-12-24T00:47:59.080Z,26.90
2023-12-24T00:50:28.965Z,26.90
2023-12-24T00:52:56.063Z,26.90
2023-12-24T00:55:23.209Z,26.90
2023-12-24T00:57:50.091Z,26.60
2023-12-24T01:00:18.276Z,26.30
2023-12-24T01:02:46.098Z,26.20
2023-12-24T01:05:13.107Z,25.60
2023-12-24T01:07:40.160Z,25.40
2023-12-24T01:10:07.715Z,25.00
2023-12-24T01:12:34.701Z,25.20
2023-12-24T01:15:01.690Z,25.10
2023-12-24T01:17:28.850Z,25.70
2023-12-24T01:19:57.592Z,26.10
2023-12-24T01:22:24.670Z,26.80
2023-12-24T01:24:52.122Z,26.90
2023-12-24T01:27:19.093Z,27.00
2023-12-24T01:29:46.101Z,26.70
2023-12-24T01:32:13.029Z,26.70
2023-12-24T01:34:41.407Z,26.50
2023-12-24T01:37:08.371Z,26.30
2023-12-24T01:39:35.269Z,26.30
2023-12-24T01:42:02.182Z,26.50
2023-12-24T01:44:29.277Z,26.30
2023-12-24T01:46:56.484Z,26.00
2023-12-24T01:49:23.625Z,26.20
2023-12-24T01:51:51.040Z,26.50
2023-12-24T01:54:20.068Z,26.70
2023-12-24T01:56:48.709Z,26.70
2023-12-24T01:59:17.069Z,26.50
2023-12-24T02:01:44.338Z,26.60
2023-12-24T02:04:11.933Z,27.10
2023-12-24T02:06:38.973Z,27.00
2023-12-24T02:09:06.816Z,27.30
2023-12-24T02:11:33.876Z,26.30
2023-12-24T02:14:01.103Z,26.20
2023-12-24T02:16:31.564Z,26.70
2023-12-24T02:19:00.652Z,26.40
2023-12-24T02:21:27.692Z,26.50
2023-12-24T02:23:54.618Z,26.80
2023-12-24T02:26:38.878Z,27.00
2023-12-24T02:29:17.764Z,27.10
2023-12-24T02:31:47.460Z,27.40
2023-12-24T02:34:18.485Z,27.30
2023-12-24T02:36:49.713Z,27.50
2023-12-24T02:39:16.753Z,27.80
2023-12-24T02:41:43.798Z,28.30
2023-12-24T02:44:12.012Z,27.90
2023-12-24T02:46:39.131Z,28.30
2023-12-24T02:49:06.107Z,27.70
2023-12-24T02:51:33.046Z,27.60
2023-12-24T02:54:00.027Z,27.50
2023-12-24T02:56:26.968Z,27.00
2023-12-24T02:58:53.964Z,27.30
2023-12-24T03:01:20.969Z,27.20
2023-12-24T03:03:47.951Z,27.50
2023-12-24T03:06:15.094Z,28.00
2023-12-24T03:08:42.267Z,27.70
2023-12-24T03:11:09.695Z,28.00
2023-12-24T03:13:36.697Z,28.20
2023-12-24T03:16:03.757Z,28.20
2023-12-24T03:18:30.723Z,28.00
2023-12-24T03:20:58.136Z,27.30
2023-12-24T03:23:25.156Z,27.10
2023-12-24T03:25:52.180Z,26.50
2023-12-24T03:28:19.073Z,26.10
2023-12-24T03:30:46.083Z,25.70
2023-12-24T03:33:13.130Z,25.20
2023-12-24T03:35:40.232Z,25.20
2023-12-24T03:38:07.201Z,25.30
2023-12-24T03:40:34.119Z,25.90
2023-12-24T03:43:01.134Z,26.30
2023-12-24T03:45:29.617Z,26.80
2023-12-24T03:47:57.094Z,26.90
2023-12-24T03:50:24.112Z,26.50
2023-12-24T03:52:51.315Z,26.70
2023-12-24T03:55:19.878Z,26.90
2023-12-24T03:57:46.768Z,26.90
2023-12-24T04:00:14.851Z,26.70
2023-12-24T04:02:41.857Z,26.80
2023-12-24T04:05:09.028Z,26.50
2023-12-24T04:07:35.959Z,26.70
2023-12-24T04:10:02.833Z,26.70
2023-12-24T04:12:29.707Z,26.60
2023-12-24T04:14:57.744Z,26.70
2023-12-24T04:17:24.720Z,27.10
2023-12-24T04:19:51.662Z,26.40
2023-12-24T04:22:18.573Z,25.90
2023-12-24T04:24:45.565Z,25.60
2023-12-24T04:27:12.891Z,25.10
2023-12-24T04:29:39.866Z,24.60
2023-12-24T04:32:06.939Z,24.70
2023-12-24T04:34:33.963Z,24.50
2023-12-24T04:37:01.199Z,24.50
2023-12-24T04:39:28.102Z,24.10
2023-12-24T04:41:54.943Z,24.40
2023-12-24T04:44:21.920Z,24.20
2023-12-24T04:46:50.236Z,24.70
2023-12-24T04:49:17.510Z,24.50
2023-12-24T04:51:44.438Z,24.80
2023-12-24T04:54:11.549Z,24.90
2023-12-24T04:56:38.541Z,24.50
2023-12-24T04:59:05.544Z,24.40
2023-12-24T05:01:32.489Z,24.40
2023-12-24T05:03:59.495Z,24.50
2023-12-24T05:06:29.878Z,25.30
2023-12-24T05:08:56.821Z,25.30
2023-12-24T05:11:23.763Z,25.60
2023-12-24T05:13:50.726Z,25.10
2023-12-24T05:16:17.636Z,24.80
2023-12-24T05:18:44.634Z,25.10
2023-12-24T05:21:11.576Z,24.90
2023-12-24T05:23:38.701Z,25.50
2023-12-24T05:26:05.821Z,25.50
2023-12-24T05:28:32.732Z,25.10
2023-12-24T05:31:00.824Z,24.60
2023-12-24T05:33:29.980Z,25.80
2023-12-24T05:35:57.310Z,25.40
2023-12-24T05:38:24.417Z,25.60
2023-12-24T05:40:51.331Z,25.80
2023-12-24T05:43:18.282Z,25.70
2023-12-24T05:45:45.201Z,24.70
2023-12-24T05:48:12.401Z,23.60
2023-12-24T05:50:40.862Z,23.00
2023-12-24T05:53:07.870Z,22.90
2023-12-24T05:55:34.869Z,22.80
2023-12-24T05:58:01.840Z,22.60
2023-12-24T06:00:28.916Z,22.40
2023-12-24T06:02:56.200Z,22.40
2023-12-24T06:05:23.863Z,23.30
2023-12-24T06:07:50.968Z,23.90
2023-12-24T06:10:17.855Z,24.00
2023-12-24T06:12:50.103Z,23.90
2023-12-24T06:15:17.258Z,23.80
2023-12-24T06:17:44.389Z,24.10
2023-12-24T06:20:11.978Z,24.00
2023-12-24T06:22:39.035Z,24.70
2023-12-24T06:25:06.439Z,24.70
2023-12-24T06:27:33.353Z,24.60
2023-12-24T06:30:00.394Z,24.70
2023-12-24T06:32:27.362Z,25.00
2023-12-24T06:34:54.471Z,25.30
2023-12-24T06:37:21.388Z,25.00
2023-12-24T06:39:48.409Z,25.40
2023-12-24T06:42:15.278Z,26.10
2023-12-24T06:44:45.421Z,26.30
2023-12-24T06:47:12.519Z,26.80
2023-12-24T06:49:42.766Z,26.60
2023-12-24T06:52:09.859Z,26.60
2023-12-24T06:54:36.733Z,26.70
2023-12-24T06:57:04.603Z,26.10
2023-12-24T06:59:31.581Z,25.60
2023-12-24T07:01:58.609Z,25.00
2023-12-24T07:04:27.449Z,25.80
2023-12-24T07:06:54.678Z,26.00
2023-12-24T07:09:21.590Z,26.20
2023-12-24T07:11:49.019Z,26.00
2023-12-24T07:14:16.158Z,25.70
2023-12-24T07:16:43.075Z,25.40
2023-12-24T07:19:10.318Z,24.50
2023-12-24T07:21:37.387Z,24.20
2023-12-24T07:24:04.609Z,25.00
2023-12-24T07:26:31.557Z,25.00
2023-12-24T07:28:58.537Z,25.30
2023-12-24T07:31:25.494Z,25.30
2023-12-24T07:33:52.561Z,25.30
2023-12-24T07:36:19.661Z,25.40
2023-12-24T07:38:47.919Z,26.00
2023-12-24T07:41:14.878Z,26.30
2023-12-24T07:43:41.839Z,26.20
2023-12-24T07:46:10.065Z,26.60
2023-12-24T07:48:37.020Z,27.30
2023-12-24T07:51:04.180Z,27.60
2023-12-24T07:53:31.339Z,27.30
2023-12-24T07:55:58.322Z,26.30
2023-12-24T07:58:25.478Z,26.40
2023-12-24T08:00:52.665Z,26.30
2023-12-24T08:03:19.656Z,26.80
2023-12-24T08:05:46.713Z,27.40
2023-12-24T08:08:13.740Z,27.60
2023-12-24T08:10:40.753Z,27.50
2023-12-24T08:13:12.262Z,27.60
2023-12-24T08:15:41.608Z,27.40
2023-12-24T08:18:08.701Z,26.80
2023-12-24T08:20:35.830Z,26.00
2023-12-24T08:23:03.697Z,24.90
2023-12-24T08:25:30.815Z,25.80
2023-12-24T08:27:57.972Z,25.90
2023-12-24T08:30:24.995Z,25.20
2023-12-24T08:32:52.574Z,25.60
2023-12-24T08:35:19.815Z,25.80
2023-12-24T08:37:46.882Z,26.10
2023-12-24T08:40:14.572Z,26.40
2023-12-24T08:42:41.490Z,25.60
2023-12-24T08:45:10.195Z,24.70
2023-12-24T08:47:38.395Z,24.30
2023-12-24T08:50:05.922Z,24.40
2023-12-24T08:52:33.096Z,25.00
2023-12-24T08:54:59.964Z,24.70
2023-12-24T08:57:26.840Z,24.80
2023-12-24T08:59:56.222Z,24.30
2023-12-24T09:02:23.244Z,24.50
2023-12-24T09:04:51.009Z,24.10
2023-12-24T09:07:18.534Z,24.10
2023-12-24T09:09:45.510Z,24.20
2023-12-24T09:12:12.876Z,24.20
2023-12-24T09:14:39.988Z,23.60
2023-12-24T09:17:07.008Z,24.00
2023-12-24T09:19:33.997Z,24.60
2023-12-24T09:22:00.953Z,23.70
2023-12-24T09:24:28.048Z,23.80
2023-12-24T09:26:54.985Z,22.80
2023-12-24T09:29:22.681Z,23.40
2023-12-24T09:31:49.881Z,23.30
2023-12-24T09:34:17.215Z,23.40
2023-12-24T09:36:44.294Z,23.30
2023-12-24T09:39:11.243Z,22.60
2023-12-24T09:41:41.644Z,23.30
2023-12-24T09:44:09.185Z,22.80
2023-12-24T09:46:37.659Z,22.50
2023-12-24T09:49:04.703Z,22.70
2023-12-24T09:51:35.125Z,23.20
2023-12-24T09:54:03.357Z,23.20
2023-12-24T09:56:30.362Z,22.90
2023-12-24T09:59:00.208Z,23.30
2023-12-24T10:01:29.787Z,23.00
2023-12-24T10:03:56.780Z,23.10
2023-12-24T10:06:23.808Z,22.90
2023-12-24T10:08:56.167Z,22.80
2023-12-24T10:11:25.266Z,22.60
2023-12-24T10:14:00.531Z,22.90
2023-12-24T10:16:28.312Z,21.00
2023-12-24T10:18:55.654Z,20.70
2023-12-24T10:21:23.298Z,22.10
2023-12-24T10:23:50.258Z,21.70
2023-12-24T10:26:21.580Z,22.40
2023-12-24T10:28:55.782Z,22.50
2023-12-24T10:31:28.680Z,22.70
2023-12-24T10:34:01.535Z,21.90
2023-12-24T10:36:28.718Z,21.80
2023-12-24T10:38:55.812Z,22.10
2023-12-24T10:41:22.867Z,23.10
2023-12-24T10:43:49.803Z,23.20
2023-12-24T10:46:16.976Z,23.20
2023-12-24T10:48:44.383Z,22.60
2023-12-24T10:51:11.351Z,23.60
2023-12-24T10:53:45.019Z,23.60
2023-12-24T10:56:20.672Z,23.20
2023-12-24T10:58:59.193Z,24.40
2023-12-24T11:01:26.217Z,24.70
2023-12-24T11:03:54.640Z,23.50
2023-12-24T11:06:46.425Z,22.70
2023-12-24T11:09:16.098Z,23.10
2023-12-24T11:11:53.455Z,22.60
2023-12-24T11:14:42.585Z,23.40
2023-12-24T11:17:10.501Z,24.00
2023-12-24T11:19:42.851Z,24.10
2023-12-24T11:22:17.489Z,24.30
2023-12-24T11:24:53.857Z,23.90
2023-12-24T11:27:21.884Z,23.50
2023-12-24T11:29:49.943Z,23.40
2023-12-24T11:32:31.145Z,23.20
2023-12-24T11:35:00.187Z,22.20
2023-12-24T11:37:28.173Z,22.60
2023-12-24T11:40:15.479Z,22.70
2023-12-24T11:42:46.491Z,23.50
2023-12-24T11:45:31.845Z,23.80
2023-12-24T11:48:00.470Z,23.70
2023-12-24T11:50:28.962Z,23.70
2023-12-24T11:52:56.325Z,23.50
2023-12-24T11:55:23.632Z,23.50
2023-12-24T11:57:51.290Z,23.60
2023-12-24T12:00:26.370Z,23.30
2023-12-24T12:02:55.532Z,23.70
2023-12-24T12:05:24.996Z,23.60
2023-12-24T12:07:58.081Z,22.80
2023-12-24T12:10:25.035Z,22.80
2023-12-24T12:12:52.489Z,23.20
2023-12-24T12:15:22.020Z,22.70
2023-12-24T12:17:51.687Z,22.70
2023-12-24T12:20:19.428Z,23.70
2023-12-24T12:22:46.658Z,22.60
2023-12-24T12:25:13.654Z,23.40
2023-12-24T12:27:40.597Z,22.90
2023-12-24T12:30:08.161Z,23.20
2023-12-24T12:32:36.418Z,24.00
2023-12-24T12:35:04.327Z,23.80
2023-12-24T12:37:31.494Z,24.20
2023-12-24T12:39:59.006Z,23.90
2023-12-24T12:42:35.628Z,23.90
2023-12-24T12:45:11.368Z,24.40
2023-12-24T12:47:39.433Z,24.30
2023-12-24T12:50:07.455Z,24.30
2023-12-24T12:52:35.014Z,24.10
2023-12-24T12:55:09.442Z,24.30
2023-12-24T12:57:40.340Z,24.30
2023-12-24T13:00:14.445Z,24.10
2023-12-24T13:02:43.336Z,23.10
2023-12-24T13:05:30.697Z,23.30
2023-12-24T13:07:59.115Z,23.80
2023-12-24T13:10:32.310Z,23.90
2023-12-24T13:13:22.712Z,23.40
2023-12-24T13:16:04.661Z,23.50
2023-12-24T13:18:31.983Z,23.40
2023-12-24T13:21:03.001Z,23.70
2023-12-24T13:23:30.338Z,23.60
2023-12-24T13:25:58.039Z,23.70
2023-12-24T13:28:25.777Z,23.70
2023-12-24T13:30:52.839Z,23.70
2023-12-24T13:33:20.545Z,23.40
2023-12-24T13:35:48.085Z,23.40
2023-12-24T13:38:18.770Z,22.70
2023-12-24T13:40:47.649Z,22.80
2023-12-24T13:43:19.810Z,22.50
2023-12-24T13:45:47.968Z,22.70
2023-12-24T13:48:15.238Z,22.70
2023-12-24T13:50:43.478Z,22.90
2023-12-24T13:53:19.418Z,22.70
2023-12-24T13:55:58.707Z,23.50
2023-12-24T13:58:26.289Z,23.30
2023-12-24T14:00:53.431Z,23.80
2023-12-24T14:03:23.535Z,23.10
2023-12-24T14:05:51.745Z,22.50
2023-12-24T14:08:18.936Z,22.80
2023-12-24T14:10:45.963Z,22.90
2023-12-24T14:13:12.969Z,22.90
2023-12-24T14:15:40.112Z,22.20
2023-12-24T14:18:09.144Z,22.80
2023-12-24T14:20:36.496Z,23.20
2023-12-24T14:23:03.931Z,23.00
2023-12-24T14:25:30.948Z,23.20
2023-12-24T14:27:58.116Z,23.20
2023-12-24T14:30:25.102Z,23.70
2023-12-24T14:32:54.242Z,23.80
2023-12-24T14:35:21.628Z,23.40
2023-12-24T14:37:48.617Z,23.40
2023-12-24T14:40:15.649Z,23.00
2023-12-24T14:42:42.674Z,23.50
2023-12-24T14:45:10.411Z,23.00
2023-12-24T14:47:37.605Z,23.40
2023-12-24T14:50:05.939Z,23.20
2023-12-24T14:52:33.210Z,23.90
2023-12-24T14:55:01.326Z,24.20
2023-12-24T14:57:30.112Z,25.00
2023-12-24T14:59:57.676Z,24.90
2023-12-24T15:02:30.039Z,25.40
2023-12-24T15:04:57.623Z,25.10
2023-12-24T15:07:26.219Z,25.10
2023-12-24T15:09:53.916Z,25.60
2023-12-24T15:12:21.419Z,25.60
2023-12-24T15:14:49.074Z,25.70
2023-12-24T15:17:17.570Z,25.50
2023-12-24T15:19:46.552Z,25.10
2023-12-24T15:22:14.690Z,25.30
2023-12-24T15:24:41.816Z,25.30
2023-12-24T15:27:09.583Z,25.80
2023-12-24T15:29:38.471Z,26.10
2023-12-24T15:32:06.401Z,26.10
2023-12-24T15:34:33.701Z,26.50
2023-12-24T15:37:01.628Z,26.10
2023-12-24T15:39:28.891Z,26.20
2023-12-24T15:41:56.648Z,26.10
2023-12-24T15:44:23.908Z,25.10
2023-12-24T15:46:51.762Z,24.70
2023-12-24T15:49:18.732Z,24.70
2023-12-24T15:51:46.106Z,24.60
2023-12-24T15:54:13.930Z,25.30
2023-12-24T15:56:42.295Z,25.00
2023-12-24T15:59:09.761Z,25.20
2023-12-24T16:01:44.579Z,25.50
2023-12-24T16:04:12.845Z,25.30
2023-12-24T16:06:40.260Z,25.10
2023-12-24T16:09:08.872Z,25.00
2023-12-24T16:11:36.183Z,25.30
2023-12-24T16:14:03.510Z,25.50
2023-12-24T16:16:31.670Z,25.60
2023-12-24T16:18:58.848Z,25.50
2023-12-24T16:21:25.785Z,25.00
2023-12-24T16:23:52.879Z,25.40
2023-12-24T16:26:19.819Z,25.50
2023-12-24T16:28:46.712Z,25.80
2023-12-24T16:31:14.765Z,25.60
2023-12-24T16:33:41.790Z,26.20
2023-12-24T16:36:09.364Z,25.70
2023-12-24T16:38:37.746Z,25.50
2023-12-24T16:41:04.964Z,25.00
2023-12-24T16:43:31.959Z,24.50
2023-12-24T16:45:59.124Z,25.10
2023-12-24T16:48:26.995Z,24.70
2023-12-24T16:50:54.250Z,24.30
2023-12-24T16:53:21.850Z,23.90
2023-12-24T16:55:48.968Z,23.80
2023-12-24T16:58:15.916Z,24.30
2023-12-24T17:00:43.325Z,23.60
2023-12-24T17:03:10.318Z,23.50
2023-12-24T17:05:37.427Z,23.10
2023-12-24T17:08:05.308Z,23.50
2023-12-24T17:10:32.258Z,24.20
2023-12-24T17:12:59.370Z,25.00
2023-12-24T17:15:26.322Z,24.60
2023-12-24T17:17:54.401Z,24.30
2023-12-24T17:20:23.784Z,25.00
2023-12-24T17:22:51.673Z,26.30
2023-12-24T17:25:20.565Z,27.60
2023-12-24T17:27:48.639Z,27.70
2023-12-24T17:30:17.581Z,27.60
2023-12-24T17:32:44.903Z,27.80
2023-12-24T17:35:11.909Z,27.60
2023-12-24T17:37:42.054Z,26.50
2023-12-24T17:40:09.424Z,26.70
2023-12-24T17:42:36.383Z,26.80
2023-12-24T17:45:03.681Z,26.90
2023-12-24T17:47:33.808Z,26.20
2023-12-24T17:50:01.093Z,26.00
2023-12-24T17:52:28.221Z,26.50
2023-12-24T17:54:55.983Z,26.10
2023-12-24T17:57:23.082Z,25.90
2023-12-24T17:59:50.243Z,27.20
2023-12-24T18:02:17.261Z,27.40
2023-12-24T18:04:44.321Z,27.90
2023-12-24T18:07:11.631Z,27.80
2023-12-24T18:09:38.687Z,27.40
2023-12-24T18:12:05.929Z,27.10
2023-12-24T18:14:32.924Z,26.50
2023-12-24T18:16:59.923Z,27.00
2023-12-24T18:19:26.987Z,27.20
2023-12-24T18:21:53.972Z,27.10
2023-12-24T18:24:20.844Z,27.10
2023-12-24T18:26:47.871Z,26.70
2023-12-24T18:29:15.089Z,27.80
2023-12-24T18:31:45.821Z,28.40
2023-12-24T18:34:14.027Z,28.00
2023-12-24T18:36:41.452Z,27.80
2023-12-24T18:39:08.395Z,27.30
2023-12-24T18:41:35.426Z,26.90
2023-12-24T18:44:02.574Z,27.10
2023-12-24T18:46:30.377Z,26.30
2023-12-24T18:48:57.491Z,25.70
2023-12-24T18:51:24.661Z,25.70
2023-12-24T18:53:53.303Z,25.50
2023-12-24T18:56:25.915Z,25.50
2023-12-24T18:58:53.610Z,25.20
2023-12-24T19:01:20.773Z,25.20
2023-12-24T19:03:48.159Z,26.00
2023-12-24T19:06:41.199Z,26.60
2023-12-24T19:09:09.104Z,25.30
2023-12-24T19:11:36.242Z,24.90
2023-12-24T19:14:03.375Z,25.60
2023-12-24T19:16:33.786Z,26.20
2023-12-24T19:19:00.920Z,25.30
2023-12-24T19:21:28.167Z,25.40
2023-12-24T19:23:55.390Z,25.80
2023-12-24T19:26:22.475Z,26.30
2023-12-24T19:28:56.517Z,26.70
2023-12-24T19:31:26.261Z,26.70
2023-12-24T19:33:53.348Z,27.20
2023-12-24T19:36:20.545Z,27.00
2023-12-24T19:38:47.469Z,26.60
2023-12-24T19:41:18.618Z,27.10
2023-12-24T19:43:45.503Z,26.60
2023-12-24T19:46:13.198Z,26.40
2023-12-24T19:48:40.105Z,26.70
2023-12-24T19:51:08.390Z,26.50
2023-12-24T19:53:35.570Z,26.10
2023-12-24T19:56:02.383Z,25.40
2023-12-24T19:58:30.287Z,25.60
2023-12-24T20:00:57.473Z,25.00
2023-12-24T20:03:24.416Z,25.70
2023-12-24T20:05:51.314Z,25.90
2023-12-24T20:08:18.325Z,25.80
2023-12-24T20:10:46.586Z,26.10
2023-12-24T20:13:15.489Z,26.00
2023-12-24T20:15:42.389Z,24.90
2023-12-24T20:18:09.610Z,25.30
2023-12-24T20:20:36.531Z,25.90
2023-12-24T20:23:03.426Z,25.50
2023-12-24T20:25:30.194Z,25.50
2023-12-24T20:27:57.057Z,25.30
2023-12-24T20:30:23.924Z,24.80
2023-12-24T20:32:51.103Z,24.50
2023-12-24T20:35:18.107Z,24.10
2023-12-24T20:37:46.913Z,23.80
2023-12-24T20:40:13.827Z,23.40
2023-12-24T20:42:40.793Z,24.20
2023-12-24T20:45:07.828Z,24.70
2023-12-24T20:47:35.620Z,24.80
2023-12-24T20:50:02.609Z,24.40
2023-12-24T20:52:29.492Z,24.50
2023-12-24T20:54:56.306Z,24.00
2023-12-24T20:57:23.152Z,24.30
2023-12-24T20:59:52.973Z,23.80
2023-12-24T21:02:20.047Z,23.00
2023-12-24T21:04:48.534Z,23.30
2023-12-24T21:07:15.460Z,24.00
2023-12-24T21:09:43.380Z,24.30
2023-12-24T21:12:10.278Z,23.90
2023-12-24T21:14:37.201Z,23.60
2023-12-24T21:17:04.159Z,23.90
2023-12-24T21:19:31.045Z,24.20
2023-12-24T21:21:58.024Z,24.90
2023-12-24T21:24:25.188Z,26.10
2023-12-24T21:26:52.263Z,26.10
2023-12-24T21:29:19.225Z,25.70
2023-12-24T21:31:46.295Z,25.70
2023-12-24T21:34:14.630Z,26.10
2023-12-24T21:36:41.995Z,26.80
2023-12-24T21:39:09.088Z,27.70
2023-12-24T21:41:39.720Z,27.20
2023-12-24T21:44:06.612Z,26.00
2023-12-24T21:46:33.574Z,25.00
2023-12-24T21:49:00.557Z,24.30
2023-12-24T21:51:27.464Z,23.50
2023-12-24T21:53:54.566Z,23.90
2023-12-24T21:56:21.479Z,24.50
2023-12-24T21:58:48.317Z,24.40
2023-12-24T22:01:26.012Z,25.20
2023-12-24T22:03:56.298Z,25.70
2023-12-24T22:06:23.435Z,25.10
2023-12-24T22:08:50.363Z,25.60
2023-12-24T22:11:21.366Z,26.80
2023-12-24T22:13:48.712Z,26.30
2023-12-24T22:16:16.484Z,26.30
2023-12-24T22:18:43.535Z,26.50
2023-12-24T22:21:10.488Z,27.30
2023-12-24T22:23:40.156Z,27.90
2023-12-24T22:26:10.726Z,27.90
2023-12-24T22:28:37.673Z,27.80
2023-12-24T22:31:05.249Z,26.50
2023-12-24T22:33:32.823Z,25.80
2023-12-24T22:35:59.878Z,26.20
2023-12-24T22:38:26.787Z,26.80
2023-12-24T22:40:54.256Z,26.70
2023-12-24T22:43:21.124Z,26.70
2023-12-24T22:45:51.699Z,26.40
2023-12-24T22:48:19.758Z,26.80
2023-12-24T22:50:46.828Z,25.80
2023-12-24T22:53:15.256Z,25.40
2023-12-24T22:55:42.400Z,25.60
2023-12-24T22:58:09.500Z,25.80
2023-12-24T23:00:36.615Z,26.30
2023-12-24T23:03:03.748Z,26.30
2023-12-24T23:05:32.055Z,26.60
2023-12-24T23:07:59.018Z,26.10
2023-12-24T23:10:26.017Z,26.20
2023-12-24T23:12:53.102Z,26.40
2023-12-24T23:15:19.957Z,26.20
2023-12-24T23:17:46.952Z,26.20
2023-12-24T23:20:13.853Z,25.70
2023-12-24T23:22:40.716Z,26.30
2023-12-24T23:25:07.715Z,27.40
2023-12-24T23:27:34.608Z,27.20
2023-12-24T23:30:01.678Z,26.30
2023-12-24T23:32:28.689Z,26.10
2023-12-24T23:34:55.643Z,26.60
2023-12-24T23:37:22.749Z,26.30
2023-12-24T23:39:49.783Z,26.90
2023-12-24T23:42:16.605Z,27.30
2023-12-24T23:44:43.719Z,26.90
2023-12-24T23:47:10.700Z,26.10
2023-12-24T23:49:37.541Z,26.70
2023-12-24T23:52:04.578Z,26.30
2023-12-24T23:54:32.706Z,26.40
2023-12-24T23:56:59.644Z,27.00
2023-12-24T23:59:26.502Z,26.80
